Terminal Aerodrome Forecast
Issued by NWS

Home | Current Version | Previous Version | Text Only | Print | Product List | Glossary On
Versions: 1 2 3 4 5 6 7 8 9 10 11 12 13 14 15 16 17 18 19 20 21
000
FTPA31 PHFO 310500
TAFOGG
TAF
PHOG 310538Z 3106/0106 03008KT P6SM FEW030 SCT050
     FM310900 VRB04KT P6SM FEW030
     FM311900 03011KT P6SM FEW030 SCT050
      AMD LTD TO WX VIS AND WIND 3109/3116=

USA.gov is the U.S. government's official web portal to all federal, state and local government web resources and services.